sensor_id;sensor_type;location;lat;lon;timestamp;pressure;altitude;pressure_sealevel;temperature;humidity
54882;BME280;40775;51.448;4.742;2024-03-08T00:00:12;101652.00;;;6.06;100.00
54882;BME280;40775;51.448;4.742;2024-03-08T00:02:42;101647.44;;;6.02;100.00
54882;BME280;40775;51.448;4.742;2024-03-08T00:05:09;101646.44;;;6.00;100.00
54882;BME280;40775;51.448;4.742;2024-03-08T00:07:38;101651.94;;;6.04;100.00
54882;BME280;40775;51.448;4.742;2024-03-08T00:10:07;101644.66;;;5.99;100.00
54882;BME280;40775;51.448;4.742;2024-03-08T00:12:44;101643.69;;;5.97;100.00
54882;BME280;40775;51.448;4.742;2024-03-08T00:15:17;101640.78;;;5.91;100.00
54882;BME280;40775;51.448;4.742;2024-03-08T00:17:46;101639.16;;;5.93;100.00
54882;BME280;40775;51.448;4.742;2024-03-08T00:20:15;101638.88;;;5.88;100.00
54882;BME280;40775;51.448;4.742;2024-03-08T00:22:45;101642.88;;;5.81;100.00
54882;BME280;40775;51.448;4.742;2024-03-08T00:25:12;101630.81;;;5.83;100.00
54882;BME280;40775;51.448;4.742;2024-03-08T00:27:39;101632.53;;;5.83;100.00
54882;BME280;40775;51.448;4.742;2024-03-08T00:30:08;101634.31;;;5.84;100.00
54882;BME280;40775;51.448;4.742;2024-03-08T00:32:36;101634.91;;;5.78;100.00
54882;BME280;40775;51.448;4.742;2024-03-08T00:35:04;101634.25;;;5.82;100.00
54882;BME280;40775;51.448;4.742;2024-03-08T00:37:34;101627.84;;;5.76;100.00
54882;BME280;40775;51.448;4.742;2024-03-08T00:40:02;101628.38;;;5.70;100.00
54882;BME280;40775;51.448;4.742;2024-03-08T00:42:29;101624.88;;;5.70;100.00
54882;BME280;40775;51.448;4.742;2024-03-08T00:44:56;101620.66;;;5.72;100.00
54882;BME280;40775;51.448;4.742;2024-03-08T00:47:25;101628.38;;;5.70;100.00
54882;BME280;40775;51.448;4.742;2024-03-08T00:49:52;101622.19;;;5.68;100.00
54882;BME280;40775;51.448;4.742;2024-03-08T00:52:20;101621.97;;;5.64;100.00
54882;BME280;40775;51.448;4.742;2024-03-08T00:54:47;101620.09;;;5.61;100.00
54882;BME280;40775;51.448;4.742;2024-03-08T00:57:14;101617.50;;;5.61;100.00
54882;BME280;40775;51.448;4.742;2024-03-08T00:59:41;101613.91;;;5.59;100.00
54882;BME280;40775;51.448;4.742;2024-03-08T01:02:08;101610.91;;;5.51;100.00
54882;BME280;40775;51.448;4.742;2024-03-08T01:04:36;101611.81;;;5.52;100.00
54882;BME280;40775;51.448;4.742;2024-03-08T01:07:03;101606.44;;;5.49;100.00
54882;BME280;40775;51.448;4.742;2024-03-08T01:09:30;101598.44;;;5.46;100.00
54882;BME280;40775;51.448;4.742;2024-03-08T01:11:57;101596.09;;;5.50;100.00
54882;BME280;40775;51.448;4.742;2024-03-08T01:14:24;101591.63;;;5.48;100.00
54882;BME280;40775;51.448;4.742;2024-03-08T01:16:56;101593.16;;;5.44;100.00
54882;BME280;40775;51.448;4.742;2024-03-08T01:19:23;101592.09;;;5.41;100.00
54882;BME280;40775;51.448;4.742;2024-03-08T01:21:51;101594.31;;;5.33;100.00
54882;BME280;40775;51.448;4.742;2024-03-08T01:24:19;101584.13;;;5.38;100.00
54882;BME280;40775;51.448;4.742;2024-03-08T01:26:46;101579.50;;;5.32;100.00
54882;BME280;40775;51.448;4.742;2024-03-08T01:29:13;101583.66;;;5.28;100.00
54882;BME280;40775;51.448;4.742;2024-03-08T01:31:40;101580.41;;;5.33;100.00
54882;BME280;40775;51.448;4.742;2024-03-08T01:34:07;101582.59;;;5.25;100.00
54882;BME280;40775;51.448;4.742;2024-03-08T01:36:34;101580.31;;;5.31;100.00
54882;BME280;40775;51.448;4.742;2024-03-08T01:39:04;101569.50;;;5.23;100.00
54882;BME280;40775;51.448;4.742;2024-03-08T01:41:35;101565.81;;;5.20;100.00
54882;BME280;40775;51.448;4.742;2024-03-08T01:44:03;101565.41;;;5.12;100.00
54882;BME280;40775;51.448;4.742;2024-03-08T01:46:30;101558.59;;;5.14;100.00
54882;BME280;40775;51.448;4.742;2024-03-08T01:48:58;101557.38;;;5.24;100.00
54882;BME280;40775;51.448;4.742;2024-03-08T01:51:29;101556.13;;;5.17;100.00
54882;BME280;40775;51.448;4.742;2024-03-08T01:53:58;101552.41;;;5.12;100.00
54882;BME280;40775;51.448;4.742;2024-03-08T01:56:28;101540.53;;;5.01;100.00
54882;BME280;40775;51.448;4.742;2024-03-08T01:58:55;101546.06;;;5.07;100.00
54882;BME280;40775;51.448;4.742;2024-03-08T02:01:22;101539.06;;;5.06;100.00
54882;BME280;40775;51.448;4.742;2024-03-08T02:03:53;101527.38;;;4.98;100.00
54882;BME280;40775;51.448;4.742;2024-03-08T02:06:20;101535.91;;;4.95;100.00
54882;BME280;40775;51.448;4.742;2024-03-08T02:08:47;101538.44;;;4.94;100.00
54882;BME280;40775;51.448;4.742;2024-03-08T02:11:14;101532.41;;;4.95;100.00
54882;BME280;40775;51.448;4.742;2024-03-08T02:13:43;101526.31;;;4.94;100.00
54882;BME280;40775;51.448;4.742;2024-03-08T02:16:10;101533.03;;;4.91;100.00
54882;BME280;40775;51.448;4.742;2024-03-08T02:18:37;101530.63;;;4.94;100.00
54882;BME280;40775;51.448;4.742;2024-03-08T02:21:07;101528.56;;;4.88;100.00
54882;BME280;40775;51.448;4.742;2024-03-08T02:23:35;101522.53;;;4.89;100.00
54882;BME280;40775;51.448;4.742;2024-03-08T02:26:04;101518.06;;;4.87;100.00
54882;BME280;40775;51.448;4.742;2024-03-08T02:28:32;101518.97;;;4.87;100.00
54882;BME280;40775;51.448;4.742;2024-03-08T02:30:59;101509.44;;;4.88;100.00
54882;BME280;40775;51.448;4.742;2024-03-08T02:33:27;101504.09;;;4.85;100.00
54882;BME280;40775;51.448;4.742;2024-03-08T02:35:55;101497.91;;;4.83;100.00
54882;BME280;40775;51.448;4.742;2024-03-08T02:38:23;101503.94;;;4.82;100.00
54882;BME280;40775;51.448;4.742;2024-03-08T02:40:53;101490.53;;;4.74;100.00
54882;BME280;40775;51.448;4.742;2024-03-08T02:43:22;101492.31;;;4.75;100.00
54882;BME280;40775;51.448;4.742;2024-03-08T02:45:50;101487.69;;;4.70;100.00
54882;BME280;40775;51.448;4.742;2024-03-08T02:48:19;101487.84;;;4.73;100.00
54882;BME280;40775;51.448;4.742;2024-03-08T02:50:48;101480.94;;;4.73;100.00
54882;BME280;40775;51.448;4.742;2024-03-08T02:53:15;101484.09;;;4.68;100.00
54882;BME280;40775;51.448;4.742;2024-03-08T02:55:42;101479.31;;;4.75;100.00
54882;BME280;40775;51.448;4.742;2024-03-08T02:58:10;101478.53;;;4.61;100.00
54882;BME280;40775;51.448;4.742;2024-03-08T03:00:38;101471.91;;;4.67;100.00
54882;BME280;40775;51.448;4.742;2024-03-08T03:03:07;101464.88;;;4.65;100.00
54882;BME280;40775;51.448;4.742;2024-03-08T03:05:34;101470.56;;;4.58;100.00
54882;BME280;40775;51.448;4.742;2024-03-08T03:08:02;101467.50;;;4.65;100.00
54882;BME280;40775;51.448;4.742;2024-03-08T03:10:36;101462.03;;;4.61;100.00
54882;BME280;40775;51.448;4.742;2024-03-08T03:13:04;101463.84;;;4.62;100.00
54882;BME280;40775;51.448;4.742;2024-03-08T03:15:35;101461.81;;;4.56;100.00
54882;BME280;40775;51.448;4.742;2024-03-08T03:18:04;101454.16;;;4.59;100.00
54882;BME280;40775;51.448;4.742;2024-03-08T03:20:35;101458.22;;;4.54;100.00
54882;BME280;40775;51.448;4.742;2024-03-08T03:23:11;101456.44;;;4.53;100.00
54882;BME280;40775;51.448;4.742;2024-03-08T03:25:42;101460.00;;;4.55;100.00
54882;BME280;40775;51.448;4.742;2024-03-08T03:28:10;101451.06;;;4.50;100.00
54882;BME280;40775;51.448;4.742;2024-03-08T03:30:41;101451.25;;;4.53;100.00
54882;BME280;40775;51.448;4.742;2024-03-08T03:33:08;101441.31;;;4.46;100.00
54882;BME280;40775;51.448;4.742;2024-03-08T03:35:35;101447.25;;;4.44;100.00
54882;BME280;40775;51.448;4.742;2024-03-08T03:38:04;101439.22;;;4.39;100.00
54882;BME280;40775;51.448;4.742;2024-03-08T03:40:34;101438.41;;;4.40;100.00
54882;BME280;40775;51.448;4.742;2024-03-08T03:43:02;101433.22;;;4.40;100.00
54882;BME280;40775;51.448;4.742;2024-03-08T03:45:30;101441.81;;;4.39;100.00
54882;BME280;40775;51.448;4.742;2024-03-08T03:48:05;101431.31;;;4.38;100.00
54882;BME280;40775;51.448;4.742;2024-03-08T03:50:34;101434.72;;;4.37;100.00
54882;BME280;40775;51.448;4.742;2024-03-08T03:53:04;101427.66;;;4.34;100.00
54882;BME280;40775;51.448;4.742;2024-03-08T03:55:35;101424.88;;;4.31;100.00
54882;BME280;40775;51.448;4.742;2024-03-08T03:58:04;101423.66;;;4.24;100.00
54882;BME280;40775;51.448;4.742;2024-03-08T04:00:31;101422.78;;;4.24;100.00
54882;BME280;40775;51.448;4.742;2024-03-08T04:02:58;101424.47;;;4.23;100.00
54882;BME280;40775;51.448;4.742;2024-03-08T04:05:27;101424.41;;;4.22;100.00
54882;BME280;40775;51.448;4.742;2024-03-08T04:07:55;101420.81;;;4.20;100.00
54882;BME280;40775;51.448;4.742;2024-03-08T04:10:22;101417.97;;;4.15;100.00
54882;BME280;40775;51.448;4.742;2024-03-08T04:12:49;101411.00;;;4.14;100.00
54882;BME280;40775;51.448;4.742;2024-03-08T04:15:16;101410.25;;;4.17;100.00
54882;BME280;40775;51.448;4.742;2024-03-08T04:17:43;101405.50;;;4.10;100.00
54882;BME280;40775;51.448;4.742;2024-03-08T04:20:13;101402.22;;;4.12;100.00
54882;BME280;40775;51.448;4.742;2024-03-08T04:22:41;101403.81;;;4.10;100.00
54882;BME280;40775;51.448;4.742;2024-03-08T04:25:09;101402.91;;;4.10;100.00
54882;BME280;40775;51.448;4.742;2024-03-08T04:27:36;101394.78;;;4.03;100.00
54882;BME280;40775;51.448;4.742;2024-03-08T04:30:04;101398.44;;;4.07;100.00
54882;BME280;40775;51.448;4.742;2024-03-08T04:32:35;101398.53;;;4.09;100.00
54882;BME280;40775;51.448;4.742;2024-03-08T04:35:02;101400.63;;;3.99;100.00
54882;BME280;40775;51.448;4.742;2024-03-08T04:37:30;101392.09;;;4.02;100.00
54882;BME280;40775;51.448;4.742;2024-03-08T04:39:58;101391.06;;;3.98;100.00
54882;BME280;40775;51.448;4.742;2024-03-08T04:42:28;101386.75;;;3.99;100.00
54882;BME280;40775;51.448;4.742;2024-03-08T04:44:57;101388.13;;;3.92;100.00
54882;BME280;40775;51.448;4.742;2024-03-08T04:47:24;101384.47;;;3.89;100.00
54882;BME280;40775;51.448;4.742;2024-03-08T04:49:52;101381.94;;;3.90;100.00
54882;BME280;40775;51.448;4.742;2024-03-08T04:52:20;101379.69;;;3.96;100.00
54882;BME280;40775;51.448;4.742;2024-03-08T04:54:47;101387.41;;;3.95;100.00
54882;BME280;40775;51.448;4.742;2024-03-08T04:57:14;101374.16;;;3.90;100.00
54882;BME280;40775;51.448;4.742;2024-03-08T04:59:41;101375.13;;;3.92;100.00
54882;BME280;40775;51.448;4.742;2024-03-08T05:02:08;101376.09;;;3.94;100.00
54882;BME280;40775;51.448;4.742;2024-03-08T05:04:35;101374.81;;;3.86;100.00
54882;BME280;40775;51.448;4.742;2024-03-08T05:07:03;101369.13;;;3.93;100.00
54882;BME280;40775;51.448;4.742;2024-03-08T05:09:30;101362.16;;;3.92;100.00
54882;BME280;40775;51.448;4.742;2024-03-08T05:11:59;101359.38;;;3.89;100.00
54882;BME280;40775;51.448;4.742;2024-03-08T05:14:26;101353.94;;;3.85;100.00
54882;BME280;40775;51.448;4.742;2024-03-08T05:16:53;101359.22;;;3.86;100.00
54882;BME280;40775;51.448;4.742;2024-03-08T05:19:21;101358.41;;;3.87;100.00
54882;BME280;40775;51.448;4.742;2024-03-08T05:21:49;101359.13;;;3.85;100.00
54882;BME280;40775;51.448;4.742;2024-03-08T05:24:17;101355.97;;;3.90;100.00
54882;BME280;40775;51.448;4.742;2024-03-08T05:26:46;101350.78;;;3.90;100.00
54882;BME280;40775;51.448;4.742;2024-03-08T05:29:14;101351.34;;;3.85;100.00
54882;BME280;40775;51.448;4.742;2024-03-08T05:31:49;101353.66;;;3.80;100.00
54882;BME280;40775;51.448;4.742;2024-03-08T05:34:17;101353.41;;;3.76;100.00
54882;BME280;40775;51.448;4.742;2024-03-08T05:36:46;101352.84;;;3.81;100.00
54882;BME280;40775;51.448;4.742;2024-03-08T05:39:13;101347.50;;;3.78;100.00
54882;BME280;40775;51.448;4.742;2024-03-08T05:41:42;101348.81;;;3.86;100.00
54882;BME280;40775;51.448;4.742;2024-03-08T05:44:10;101343.84;;;3.75;100.00
54882;BME280;40775;51.448;4.742;2024-03-08T05:46:38;101332.47;;;3.72;100.00
54882;BME280;40775;51.448;4.742;2024-03-08T05:49:06;101337.03;;;3.77;100.00
54882;BME280;40775;51.448;4.742;2024-03-08T05:51:35;101336.47;;;3.82;100.00
54882;BME280;40775;51.448;4.742;2024-03-08T05:54:03;101337.19;;;3.80;100.00
54882;BME280;40775;51.448;4.742;2024-03-08T05:56:33;101335.31;;;3.77;100.00
54882;BME280;40775;51.448;4.742;2024-03-08T05:59:00;101330.59;;;3.70;100.00
54882;BME280;40775;51.448;4.742;2024-03-08T06:01:29;101326.38;;;3.72;100.00
54882;BME280;40775;51.448;4.742;2024-03-08T06:03:57;101323.44;;;3.66;100.00
54882;BME280;40775;51.448;4.742;2024-03-08T06:06:24;101321.19;;;3.72;100.00
54882;BME280;40775;51.448;4.742;2024-03-08T06:08:52;101328.91;;;3.70;100.00
54882;BME280;40775;51.448;4.742;2024-03-08T06:11:20;101321.91;;;3.69;100.00
54882;BME280;40775;51.448;4.742;2024-03-08T06:13:48;101319.25;;;3.68;100.00
54882;BME280;40775;51.448;4.742;2024-03-08T06:16:16;101320.13;;;3.68;100.00
54882;BME280;40775;51.448;4.742;2024-03-08T06:18:43;101314.94;;;3.68;100.00
54882;BME280;40775;51.448;4.742;2024-03-08T06:21:11;101319.41;;;3.71;100.00
54882;BME280;40775;51.448;4.742;2024-03-08T06:23:39;101312.25;;;3.67;100.00
54882;BME280;40775;51.448;4.742;2024-03-08T06:26:08;101308.84;;;3.68;100.00
54882;BME280;40775;51.448;4.742;2024-03-08T06:28:35;101309.50;;;3.64;100.00
54882;BME280;40775;51.448;4.742;2024-03-08T06:31:02;101312.09;;;3.64;100.00
54882;BME280;40775;51.448;4.742;2024-03-08T06:33:30;101308.84;;;3.68;100.00
54882;BME280;40775;51.448;4.742;2024-03-08T06:35:59;101305.28;;;3.66;100.00
54882;BME280;40775;51.448;4.742;2024-03-08T06:38:27;101308.28;;;3.73;100.00
54882;BME280;40775;51.448;4.742;2024-03-08T06:40:54;101301.16;;;3.69;100.00
54882;BME280;40775;51.448;4.742;2024-03-08T06:43:21;101295.22;;;3.72;100.00
54882;BME280;40775;51.448;4.742;2024-03-08T06:45:49;101298.00;;;3.75;100.00
54882;BME280;40775;51.448;4.742;2024-03-08T06:48:19;101282.25;;;3.72;100.00
54882;BME280;40775;51.448;4.742;2024-03-08T06:50:47;101290.03;;;3.72;100.00
54882;BME280;40775;51.448;4.742;2024-03-08T06:53:14;101279.66;;;3.72;100.00
54882;BME280;40775;51.448;4.742;2024-03-08T06:55:45;101292.63;;;3.72;100.00
54882;BME280;40775;51.448;4.742;2024-03-08T06:58:12;101295.03;;;3.84;100.00
54882;BME280;40775;51.448;4.742;2024-03-08T07:00:39;101293.41;;;3.86;100.00
54882;BME280;40775;51.448;4.742;2024-03-08T07:03:09;101288.13;;;3.84;100.00
54882;BME280;40775;51.448;4.742;2024-03-08T07:05:39;101284.31;;;3.94;100.00
54882;BME280;40775;51.448;4.742;2024-03-08T07:08:07;101295.59;;;3.94;100.00
54882;BME280;40775;51.448;4.742;2024-03-08T07:10:34;101287.06;;;3.97;100.00
54882;BME280;40775;51.448;4.742;2024-03-08T07:13:02;101283.09;;;4.03;100.00
54882;BME280;40775;51.448;4.742;2024-03-08T07:15:29;101285.69;;;4.03;100.00
54882;BME280;40775;51.448;4.742;2024-03-08T07:17:56;101277.88;;;4.03;100.00
54882;BME280;40775;51.448;4.742;2024-03-08T07:20:23;101278.94;;;4.07;100.00
54882;BME280;40775;51.448;4.742;2024-03-08T07:22:50;101279.44;;;4.16;100.00
54882;BME280;40775;51.448;4.742;2024-03-08T07:25:18;101274.78;;;4.11;100.00
54882;BME280;40775;51.448;4.742;2024-03-08T07:27:51;101271.97;;;4.22;100.00
54882;BME280;40775;51.448;4.742;2024-03-08T07:30:22;101268.63;;;4.25;100.00
54882;BME280;40775;51.448;4.742;2024-03-08T07:33:10;101268.28;;;4.35;100.00
54882;BME280;40775;51.448;4.742;2024-03-08T07:35:42;101264.88;;;4.36;100.00
54882;BME280;40775;51.448;4.742;2024-03-08T07:38:09;101267.81;;;4.42;100.00
54882;BME280;40775;51.448;4.742;2024-03-08T07:40:38;101255.88;;;4.46;100.00
54882;BME280;40775;51.448;4.742;2024-03-08T07:43:08;101257.22;;;4.55;100.00
54882;BME280;40775;51.448;4.742;2024-03-08T07:45:35;101261.00;;;4.62;100.00
54882;BME280;40775;51.448;4.742;2024-03-08T07:48:03;101254.19;;;4.64;100.00
54882;BME280;40775;51.448;4.742;2024-03-08T07:50:31;101239.06;;;4.73;100.00
54882;BME280;40775;51.448;4.742;2024-03-08T07:53:00;101239.00;;;4.72;100.00
54882;BME280;40775;51.448;4.742;2024-03-08T07:55:28;101244.72;;;4.82;100.00
54882;BME280;40775;51.448;4.742;2024-03-08T07:57:55;101238.16;;;4.90;100.00
54882;BME280;40775;51.448;4.742;2024-03-08T08:00:22;101232.41;;;4.96;100.00
54882;BME280;40775;51.448;4.742;2024-03-08T08:02:51;101223.19;;;5.03;100.00
54882;BME280;40775;51.448;4.742;2024-03-08T08:05:18;101226.06;;;5.09;100.00
54882;BME280;40775;51.448;4.742;2024-03-08T08:07:45;101222.19;;;5.18;100.00
54882;BME280;40775;51.448;4.742;2024-03-08T08:10:16;101218.94;;;5.22;100.00
54882;BME280;40775;51.448;4.742;2024-03-08T08:12:49;101227.19;;;5.32;100.00
54882;BME280;40775;51.448;4.742;2024-03-08T08:15:16;101214.22;;;5.33;100.00
54882;BME280;40775;51.448;4.742;2024-03-08T08:17:44;101213.75;;;5.42;100.00
54882;BME280;40775;51.448;4.742;2024-03-08T08:20:12;101218.59;;;5.52;100.00
54882;BME280;40775;51.448;4.742;2024-03-08T08:22:42;101204.91;;;5.56;100.00
54882;BME280;40775;51.448;4.742;2024-03-08T08:25:10;101215.72;;;5.65;100.00
54882;BME280;40775;51.448;4.742;2024-03-08T08:27:42;101205.56;;;5.71;100.00
54882;BME280;40775;51.448;4.742;2024-03-08T08:30:10;101210.34;;;5.80;100.00
54882;BME280;40775;51.448;4.742;2024-03-08T08:32:38;101200.88;;;5.82;100.00
54882;BME280;40775;51.448;4.742;2024-03-08T08:35:09;101195.94;;;5.88;100.00
54882;BME280;40775;51.448;4.742;2024-03-08T08:37:40;101192.03;;;5.98;100.00
54882;BME280;40775;51.448;4.742;2024-03-08T08:40:08;101178.31;;;6.02;100.00
54882;BME280;40775;51.448;4.742;2024-03-08T08:42:42;101179.31;;;6.04;100.00
54882;BME280;40775;51.448;4.742;2024-03-08T08:45:10;101175.69;;;6.21;100.00
54882;BME280;40775;51.448;4.742;2024-03-08T08:47:44;101179.31;;;6.25;100.00
54882;BME280;40775;51.448;4.742;2024-03-08T08:50:13;101175.13;;;6.28;100.00
54882;BME280;40775;51.448;4.742;2024-03-08T08:52:40;101165.81;;;6.33;100.00
54882;BME280;40775;51.448;4.742;2024-03-08T08:55:08;101159.38;;;6.46;100.00
54882;BME280;40775;51.448;4.742;2024-03-08T08:57:35;101161.28;;;6.50;100.00
54882;BME280;40775;51.448;4.742;2024-03-08T09:00:03;101160.69;;;6.57;100.00
54882;BME280;40775;51.448;4.742;2024-03-08T09:02:34;101159.50;;;6.70;100.00
54882;BME280;40775;51.448;4.742;2024-03-08T09:05:05;101153.81;;;6.80;100.00
54882;BME280;40775;51.448;4.742;2024-03-08T09:07:32;101142.81;;;6.87;100.00
54882;BME280;40775;51.448;4.742;2024-03-08T09:10:00;101147.56;;;6.97;100.00
54882;BME280;40775;51.448;4.742;2024-03-08T09:12:33;101137.00;;;6.94;100.00
54882;BME280;40775;51.448;4.742;2024-03-08T09:15:00;101140.03;;;7.05;100.00
54882;BME280;40775;51.448;4.742;2024-03-08T09:17:28;101126.47;;;7.13;100.00
54882;BME280;40775;51.448;4.742;2024-03-08T09:19:55;101117.91;;;7.18;100.00
54882;BME280;40775;51.448;4.742;2024-03-08T09:22:24;101114.63;;;7.23;100.00
54882;BME280;40775;51.448;4.742;2024-03-08T09:24:52;101101.97;;;7.34;100.00
54882;BME280;40775;51.448;4.742;2024-03-08T09:27:19;101104.00;;;7.41;100.00
54882;BME280;40775;51.448;4.742;2024-03-08T09:29:46;101098.13;;;7.47;100.00
54882;BME280;40775;51.448;4.742;2024-03-08T09:32:13;101087.09;;;7.55;100.00
54882;BME280;40775;51.448;4.742;2024-03-08T09:34:40;101094.41;;;7.65;100.00
54882;BME280;40775;51.448;4.742;2024-03-08T09:37:07;101081.75;;;7.76;100.00
54882;BME280;40775;51.448;4.742;2024-03-08T09:39:36;101063.84;;;7.87;100.00
54882;BME280;40775;51.448;4.742;2024-03-08T09:42:03;101070.38;;;7.99;100.00
54882;BME280;40775;51.448;4.742;2024-03-08T09:44:30;101067.94;;;8.04;100.00
54882;BME280;40775;51.448;4.742;2024-03-08T09:47:00;101058.59;;;8.12;100.00
54882;BME280;40775;51.448;4.742;2024-03-08T09:49:29;101050.97;;;8.18;100.00
54882;BME280;40775;51.448;4.742;2024-03-08T09:51:56;101039.13;;;8.29;100.00
54882;BME280;40775;51.448;4.742;2024-03-08T09:54:25;101032.44;;;8.38;100.00
54882;BME280;40775;51.448;4.742;2024-03-08T09:56:53;101035.06;;;8.38;100.00
54882;BME280;40775;51.448;4.742;2024-03-08T09:59:20;101028.50;;;8.50;100.00
54882;BME280;40775;51.448;4.742;2024-03-08T10:01:50;101017.53;;;8.62;100.00
54882;BME280;40775;51.448;4.742;2024-03-08T10:04:19;101010.88;;;8.73;100.00
54882;BME280;40775;51.448;4.742;2024-03-08T10:06:47;101012.03;;;8.81;100.00
54882;BME280;40775;51.448;4.742;2024-03-08T10:09:15;100991.53;;;8.68;100.00
54882;BME280;40775;51.448;4.742;2024-03-08T10:11:43;101006.97;;;8.87;100.00
54882;BME280;40775;51.448;4.742;2024-03-08T10:14:11;100990.59;;;8.94;100.00
54882;BME280;40775;51.448;4.742;2024-03-08T10:16:38;100987.22;;;8.98;100.00
54882;BME280;40775;51.448;4.742;2024-03-08T10:19:07;100978.72;;;9.06;100.00
54882;BME280;40775;51.448;4.742;2024-03-08T10:21:34;100977.25;;;9.17;100.00
54882;BME280;40775;51.448;4.742;2024-03-08T10:24:03;100972.88;;;9.16;100.00
54882;BME280;40775;51.448;4.742;2024-03-08T10:26:30;100973.97;;;9.24;100.00
54882;BME280;40775;51.448;4.742;2024-03-08T10:28:57;100974.31;;;9.36;100.00
54882;BME280;40775;51.448;4.742;2024-03-08T10:31:25;100970.03;;;9.40;100.00
54882;BME280;40775;51.448;4.742;2024-03-08T10:33:52;100962.56;;;9.55;100.00
54882;BME280;40775;51.448;4.742;2024-03-08T10:36:19;100957.47;;;9.59;100.00
54882;BME280;40775;51.448;4.742;2024-03-08T10:38:47;100956.78;;;9.67;100.00
54882;BME280;40775;51.448;4.742;2024-03-08T10:41:17;100951.63;;;9.70;100.00
54882;BME280;40775;51.448;4.742;2024-03-08T10:47:26;100942.19;;;9.78;100.00
54882;BME280;40775;51.448;4.742;2024-03-08T10:50:20;100934.59;;;9.87;100.00
54882;BME280;40775;51.448;4.742;2024-03-08T10:52:52;100930.34;;;9.92;100.00
54882;BME280;40775;51.448;4.742;2024-03-08T10:55:20;100931.38;;;10.00;100.00
54882;BME280;40775;51.448;4.742;2024-03-08T10:57:48;100921.06;;;10.08;100.00
54882;BME280;40775;51.448;4.742;2024-03-08T11:00:15;100915.84;;;10.09;100.00
54882;BME280;40775;51.448;4.742;2024-03-08T11:02:54;100904.84;;;10.23;100.00
54882;BME280;40775;51.448;4.742;2024-03-08T11:05:38;100912.69;;;10.21;100.00
54882;BME280;40775;51.448;4.742;2024-03-08T11:08:17;100905.94;;;10.32;100.00
54882;BME280;40775;51.448;4.742;2024-03-08T11:10:52;100904.25;;;10.36;100.00
54882;BME280;40775;51.448;4.742;2024-03-08T11:13:41;100893.19;;;10.49;100.00
54882;BME280;40775;51.448;4.742;2024-03-08T11:16:11;100880.78;;;10.42;100.00
54882;BME280;40775;51.448;4.742;2024-03-08T11:18:39;100885.25;;;10.46;100.00
54882;BME280;40775;51.448;4.742;2024-03-08T11:21:09;100882.13;;;10.65;100.00
54882;BME280;40775;51.448;4.742;2024-03-08T11:23:40;100880.38;;;10.64;100.00
54882;BME280;40775;51.448;4.742;2024-03-08T11:26:22;100880.72;;;10.81;100.00
54882;BME280;40775;51.448;4.742;2024-03-08T11:28:50;100875.47;;;10.81;100.00
54882;BME280;40775;51.448;4.742;2024-03-08T11:31:24;100875.44;;;10.79;100.00
54882;BME280;40775;51.448;4.742;2024-03-08T11:33:53;100869.47;;;10.88;100.00
54882;BME280;40775;51.448;4.742;2024-03-08T11:36:23;100861.91;;;11.03;100.00
54882;BME280;40775;51.448;4.742;2024-03-08T11:38:53;100864.56;;;11.05;100.00
54882;BME280;40775;51.448;4.742;2024-03-08T11:41:23;100863.00;;;11.16;100.00
54882;BME280;40775;51.448;4.742;2024-03-08T11:44:05;100858.66;;;11.18;100.00
54882;BME280;40775;51.448;4.742;2024-03-08T11:46:33;100857.06;;;11.26;100.00
54882;BME280;40775;51.448;4.742;2024-03-08T11:49:00;100848.38;;;11.30;100.00
54882;BME280;40775;51.448;4.742;2024-03-08T11:51:27;100847.63;;;11.39;100.00
54882;BME280;40775;51.448;4.742;2024-03-08T11:53:55;100847.78;;;11.48;100.00
54882;BME280;40775;51.448;4.742;2024-03-08T11:56:22;100846.91;;;11.48;100.00
54882;BME280;40775;51.448;4.742;2024-03-08T11:58:55;100838.97;;;11.46;100.00
54882;BME280;40775;51.448;4.742;2024-03-08T12:01:26;100845.38;;;11.62;100.00
54882;BME280;40775;51.448;4.742;2024-03-08T12:03:55;100832.25;;;11.62;100.00
54882;BME280;40775;51.448;4.742;2024-03-08T12:06:22;100826.91;;;11.56;100.00
54882;BME280;40775;51.448;4.742;2024-03-08T12:08:49;100817.13;;;11.50;100.00
54882;BME280;40775;51.448;4.742;2024-03-08T12:11:18;100826.25;;;11.72;100.00
54882;BME280;40775;51.448;4.742;2024-03-08T12:13:51;100818.50;;;11.78;100.00
54882;BME280;40775;51.448;4.742;2024-03-08T12:16:19;100810.66;;;11.81;100.00
54882;BME280;40775;51.448;4.742;2024-03-08T12:18:48;100808.16;;;11.90;100.00
54882;BME280;40775;51.448;4.742;2024-03-08T12:21:15;100803.69;;;11.85;100.00
54882;BME280;40775;51.448;4.742;2024-03-08T12:23:46;100794.94;;;11.86;100.00
54882;BME280;40775;51.448;4.742;2024-03-08T12:26:24;100794.25;;;11.99;100.00
54882;BME280;40775;51.448;4.742;2024-03-08T12:28:53;100793.47;;;12.06;100.00
54882;BME280;40775;51.448;4.742;2024-03-08T12:31:21;100786.38;;;12.02;100.00
54882;BME280;40775;51.448;4.742;2024-03-08T12:33:54;100784.63;;;12.02;100.00
54882;BME280;40775;51.448;4.742;2024-03-08T12:36:24;100774.91;;;11.95;100.00
54882;BME280;40775;51.448;4.742;2024-03-08T12:38:53;100768.13;;;12.13;100.00
54882;BME280;40775;51.448;4.742;2024-03-08T12:41:24;100769.13;;;12.24;100.00
54882;BME280;40775;51.448;4.742;2024-03-08T12:43:51;100769.03;;;12.16;100.00
54882;BME280;40775;51.448;4.742;2024-03-08T12:46:19;100762.94;;;12.19;100.00
54882;BME280;40775;51.448;4.742;2024-03-08T12:48:48;100758.50;;;12.15;100.00
54882;BME280;40775;51.448;4.742;2024-03-08T12:51:16;100755.00;;;12.14;100.00
54882;BME280;40775;51.448;4.742;2024-03-08T12:53:45;100758.63;;;12.27;100.00
54882;BME280;40775;51.448;4.742;2024-03-08T12:56:19;100750.22;;;12.58;100.00
54882;BME280;40775;51.448;4.742;2024-03-08T12:58:47;100752.91;;;12.61;100.00